sensor_id;sensor_type;location;lat;lon;timestamp;pressure;altitude;pressure_sealevel;temperature;humidity
78932;BME280;68331;53.362;55.932;2024-02-21T00:01:14;101815.44;;;-18.14;57.93
78932;BME280;68331;53.362;55.932;2024-02-21T00:03:40;101795.72;;;-18.32;58.19
78932;BME280;68331;53.362;55.932;2024-02-21T00:06:06;101820.16;;;-18.24;58.80
78932;BME280;68331;53.362;55.932;2024-02-21T00:08:32;101804.88;;;-18.25;58.69
78932;BME280;68331;53.362;55.932;2024-02-21T00:10:58;101809.16;;;-18.17;58.73
78932;BME280;68331;53.362;55.932;2024-02-21T00:13:24;101816.16;;;-18.15;58.56
78932;BME280;68331;53.362;55.932;2024-02-21T00:15:50;101827.19;;;-18.21;58.41
78932;BME280;68331;53.362;55.932;2024-02-21T00:18:16;101814.59;;;-18.28;58.56
78932;BME280;68331;53.362;55.932;2024-02-21T00:20:42;101776.38;;;-18.55;58.51
78932;BME280;68331;53.362;55.932;2024-02-21T00:23:08;101819.84;;;-18.34;58.77
78932;BME280;68331;53.362;55.932;2024-02-21T00:25:34;101796.13;;;-18.50;58.85
78932;BME280;68331;53.362;55.932;2024-02-21T00:28:00;101804.75;;;-18.34;59.49
78932;BME280;68331;53.362;55.932;2024-02-21T00:30:26;101802.34;;;-18.25;58.84
78932;BME280;68331;53.362;55.932;2024-02-21T00:32:52;101815.78;;;-18.11;58.58
78932;BME280;68331;53.362;55.932;2024-02-21T00:35:17;101810.75;;;-18.11;58.72
78932;BME280;68331;53.362;55.932;2024-02-21T00:37:43;101804.81;;;-18.11;58.64
78932;BME280;68331;53.362;55.932;2024-02-21T00:40:09;101793.31;;;-18.16;58.69
78932;BME280;68331;53.362;55.932;2024-02-21T00:42:36;101809.81;;;-18.04;58.33
78932;BME280;68331;53.362;55.932;2024-02-21T00:45:02;101812.47;;;-18.02;58.42
78932;BME280;68331;53.362;55.932;2024-02-21T00:47:29;101807.34;;;-18.11;58.40
78932;BME280;68331;53.362;55.932;2024-02-21T00:49:55;101811.28;;;-18.13;58.52
78932;BME280;68331;53.362;55.932;2024-02-21T00:52:21;101822.66;;;-18.17;58.15
78932;BME280;68331;53.362;55.932;2024-02-21T00:54:47;101819.03;;;-18.19;58.47
78932;BME280;68331;53.362;55.932;2024-02-21T00:57:14;101789.97;;;-18.31;58.24
78932;BME280;68331;53.362;55.932;2024-02-21T00:59:41;101831.25;;;-18.08;58.05
78932;BME280;68331;53.362;55.932;2024-02-21T01:02:07;101820.28;;;-18.08;57.74
78932;BME280;68331;53.362;55.932;2024-02-21T01:04:35;101788.72;;;-18.27;57.42
78932;BME280;68331;53.362;55.932;2024-02-21T01:07:01;101820.31;;;-18.22;57.52
78932;BME280;68331;53.362;55.932;2024-02-21T01:09:26;101823.56;;;-18.23;57.60
78932;BME280;68331;53.362;55.932;2024-02-21T01:11:52;101801.69;;;-18.39;57.51
78932;BME280;68331;53.362;55.932;2024-02-21T01:14:18;101833.69;;;-18.31;57.65
78932;BME280;68331;53.362;55.932;2024-02-21T01:16:44;101780.72;;;-18.61;57.39
78932;BME280;68331;53.362;55.932;2024-02-21T01:19:10;101830.84;;;-18.48;57.79
78932;BME280;68331;53.362;55.932;2024-02-21T01:21:36;101782.09;;;-18.79;57.74
78932;BME280;68331;53.362;55.932;2024-02-21T01:24:02;101809.16;;;-18.69;57.74
78932;BME280;68331;53.362;55.932;2024-02-21T01:26:29;101819.38;;;-18.67;57.83
78932;BME280;68331;53.362;55.932;2024-02-21T01:28:55;101816.53;;;-18.70;57.60
78932;BME280;68331;53.362;55.932;2024-02-21T01:31:21;101814.06;;;-18.78;57.39
78932;BME280;68331;53.362;55.932;2024-02-21T01:33:46;101818.75;;;-18.95;57.62
78932;BME280;68331;53.362;55.932;2024-02-21T01:36:13;101826.69;;;-19.06;57.63
78932;BME280;68331;53.362;55.932;2024-02-21T01:38:39;101814.28;;;-19.19;58.00
78932;BME280;68331;53.362;55.932;2024-02-21T01:41:05;101807.81;;;-19.24;58.18
78932;BME280;68331;53.362;55.932;2024-02-21T01:43:31;101818.03;;;-19.08;58.27
78932;BME280;68331;53.362;55.932;2024-02-21T01:45:57;101800.28;;;-19.17;58.09
78932;BME280;68331;53.362;55.932;2024-02-21T01:48:23;101817.69;;;-19.11;58.10
78932;BME280;68331;53.362;55.932;2024-02-21T01:50:51;101827.22;;;-19.16;58.13
78932;BME280;68331;53.362;55.932;2024-02-21T01:53:38;101824.69;;;-19.09;58.14
78932;BME280;68331;53.362;55.932;2024-02-21T01:56:08;101828.31;;;-19.14;58.11
78932;BME280;68331;53.362;55.932;2024-02-21T01:58:36;101756.28;;;-19.56;57.91
78932;BME280;68331;53.362;55.932;2024-02-21T02:01:03;101830.09;;;-19.20;57.83
78932;BME280;68331;53.362;55.932;2024-02-21T02:03:29;101822.19;;;-19.23;57.89
78932;BME280;68331;53.362;55.932;2024-02-21T02:05:56;101811.59;;;-19.42;57.99
78932;BME280;68331;53.362;55.932;2024-02-21T02:08:23;101821.66;;;-19.42;58.06
78932;BME280;68331;53.362;55.932;2024-02-21T02:10:49;101826.16;;;-19.39;58.19
78932;BME280;68331;53.362;55.932;2024-02-21T02:13:15;101807.47;;;-19.34;58.14
78932;BME280;68331;53.362;55.932;2024-02-21T02:15:48;101827.56;;;-19.27;58.20
78932;BME280;68331;53.362;55.932;2024-02-21T02:18:16;101827.41;;;-19.21;58.34
78932;BME280;68331;53.362;55.932;2024-02-21T02:20:44;101825.44;;;-19.17;58.16
78932;BME280;68331;53.362;55.932;2024-02-21T02:25:51;101828.66;;;-19.25;57.48
78932;BME280;68331;53.362;55.932;2024-02-21T02:28:18;101836.75;;;-19.42;57.92
78932;BME280;68331;53.362;55.932;2024-02-21T02:30:45;101823.25;;;-19.50;58.08
78932;BME280;68331;53.362;55.932;2024-02-21T02:33:11;101811.78;;;-19.76;57.76
78932;BME280;68331;53.362;55.932;2024-02-21T02:35:37;101822.13;;;-19.87;58.40
78932;BME280;68331;53.362;55.932;2024-02-21T02:38:04;101836.00;;;-19.84;58.68
78932;BME280;68331;53.362;55.932;2024-02-21T02:40:31;101829.50;;;-19.96;58.67
78932;BME280;68331;53.362;55.932;2024-02-21T02:42:57;101827.16;;;-19.95;58.88
78932;BME280;68331;53.362;55.932;2024-02-21T02:45:24;101826.81;;;-19.90;58.40
78932;BME280;68331;53.362;55.932;2024-02-21T02:47:53;101833.09;;;-19.87;58.59
78932;BME280;68331;53.362;55.932;2024-02-21T02:50:26;101835.41;;;-19.96;58.61
78932;BME280;68331;53.362;55.932;2024-02-21T02:52:53;101833.94;;;-20.08;58.71
78932;BME280;68331;53.362;55.932;2024-02-21T02:55:20;101827.78;;;-20.24;59.04
78932;BME280;68331;53.362;55.932;2024-02-21T02:57:46;101841.06;;;-20.25;58.93
78932;BME280;68331;53.362;55.932;2024-02-21T03:00:14;101836.34;;;-20.29;58.38
78932;BME280;68331;53.362;55.932;2024-02-21T03:02:42;101822.34;;;-20.42;58.17
78932;BME280;68331;53.362;55.932;2024-02-21T03:05:15;101845.47;;;-20.37;58.11
78932;BME280;68331;53.362;55.932;2024-02-21T03:07:42;101836.66;;;-20.48;58.18
78932;BME280;68331;53.362;55.932;2024-02-21T03:10:09;101837.16;;;-20.57;58.04
78932;BME280;68331;53.362;55.932;2024-02-21T03:12:35;101838.56;;;-20.59;57.83
78932;BME280;68331;53.362;55.932;2024-02-21T03:15:02;101805.44;;;-20.91;57.91
78932;BME280;68331;53.362;55.932;2024-02-21T03:17:31;101848.84;;;-20.78;58.05
78932;BME280;68331;53.362;55.932;2024-02-21T03:19:58;101853.06;;;-20.91;58.43
78932;BME280;68331;53.362;55.932;2024-02-21T03:22:25;101843.13;;;-21.04;58.46
78932;BME280;68331;53.362;55.932;2024-02-21T03:24:51;101859.44;;;-21.00;58.41
78932;BME280;68331;53.362;55.932;2024-02-21T03:27:17;101846.47;;;-21.10;58.43
78932;BME280;68331;53.362;55.932;2024-02-21T03:29:43;101847.75;;;-21.07;58.37
78932;BME280;68331;53.362;55.932;2024-02-21T03:32:09;101843.91;;;-20.98;58.03
78932;BME280;68331;53.362;55.932;2024-02-21T03:34:35;101812.41;;;-21.16;58.13
78932;BME280;68331;53.362;55.932;2024-02-21T03:37:01;101861.53;;;-20.83;58.34
78932;BME280;68331;53.362;55.932;2024-02-21T03:39:27;101841.47;;;-20.83;58.04
78932;BME280;68331;53.362;55.932;2024-02-21T03:41:56;101860.38;;;-20.73;57.65
78932;BME280;68331;53.362;55.932;2024-02-21T03:44:22;101860.66;;;-20.77;57.17
78932;BME280;68331;53.362;55.932;2024-02-21T03:46:48;101849.19;;;-20.82;57.18
78932;BME280;68331;53.362;55.932;2024-02-21T03:49:14;101845.44;;;-20.78;57.35
78932;BME280;68331;53.362;55.932;2024-02-21T03:51:40;101858.75;;;-20.72;57.10
78932;BME280;68331;53.362;55.932;2024-02-21T03:54:06;101848.34;;;-20.75;56.98
78932;BME280;68331;53.362;55.932;2024-02-21T03:56:32;101844.19;;;-20.40;56.71
78932;BME280;68331;53.362;55.932;2024-02-21T04:13:09;101849.31;;;-19.42;53.19
78932;BME280;68331;53.362;55.932;2024-02-21T04:15:36;101834.91;;;-18.27;51.25
78932;BME280;68331;53.362;55.932;2024-02-21T04:18:02;101847.94;;;-18.01;49.81
78932;BME280;68331;53.362;55.932;2024-02-21T04:20:31;101846.06;;;-18.32;50.10
78932;BME280;68331;53.362;55.932;2024-02-21T04:22:57;101851.50;;;-18.36;50.51
78932;BME280;68331;53.362;55.932;2024-02-21T04:25:24;101852.69;;;-18.11;50.27
78932;BME280;68331;53.362;55.932;2024-02-21T04:27:50;101851.41;;;-18.08;50.20
78932;BME280;68331;53.362;55.932;2024-02-21T04:30:17;101857.88;;;-18.10;50.38
78932;BME280;68331;53.362;55.932;2024-02-21T04:32:43;101848.44;;;-18.41;51.06
78932;BME280;68331;53.362;55.932;2024-02-21T04:35:09;101814.78;;;-18.86;51.67
78932;BME280;68331;53.362;55.932;2024-02-21T04:37:35;101853.44;;;-18.78;52.63
78932;BME280;68331;53.362;55.932;2024-02-21T04:40:01;101850.81;;;-18.57;52.85
78932;BME280;68331;53.362;55.932;2024-02-21T04:42:27;101861.97;;;-17.96;51.97
78932;BME280;68331;53.362;55.932;2024-02-21T04:44:54;101855.75;;;-17.76;51.46
78932;BME280;68331;53.362;55.932;2024-02-21T04:47:19;101868.66;;;-17.73;51.34
78932;BME280;68331;53.362;55.932;2024-02-21T04:49:46;101861.22;;;-17.65;51.40
78932;BME280;68331;53.362;55.932;2024-02-21T04:52:12;101838.69;;;-17.33;50.91
78932;BME280;68331;53.362;55.932;2024-02-21T04:54:38;101851.28;;;-16.87;49.78
78932;BME280;68331;53.362;55.932;2024-02-21T04:57:04;101843.28;;;-16.99;49.13
78932;BME280;68331;53.362;55.932;2024-02-21T04:59:30;101849.34;;;-17.13;49.30
78932;BME280;68331;53.362;55.932;2024-02-21T05:01:56;101846.66;;;-17.14;49.25
78932;BME280;68331;53.362;55.932;2024-02-21T05:04:22;101842.34;;;-16.45;48.48
78932;BME280;68331;53.362;55.932;2024-02-21T05:06:48;101831.47;;;-15.23;45.29
78932;BME280;68331;53.362;55.932;2024-02-21T05:09:15;101839.84;;;-13.88;43.51
78932;BME280;68331;53.362;55.932;2024-02-21T05:11:41;101815.34;;;-14.04;42.10
78932;BME280;68331;53.362;55.932;2024-02-21T05:14:07;101836.22;;;-14.50;43.69
78932;BME280;68331;53.362;55.932;2024-02-21T05:16:33;101835.06;;;-13.93;43.05
78932;BME280;68331;53.362;55.932;2024-02-21T05:18:59;101824.44;;;-13.18;41.54
78932;BME280;68331;53.362;55.932;2024-02-21T05:21:25;101842.50;;;-13.15;40.61
78932;BME280;68331;53.362;55.932;2024-02-21T05:23:52;101806.88;;;-14.22;42.45
78932;BME280;68331;53.362;55.932;2024-02-21T05:26:25;101847.06;;;-12.94;41.54
78932;BME280;68331;53.362;55.932;2024-02-21T05:28:52;101802.69;;;-12.42;40.17
78932;BME280;68331;53.362;55.932;2024-02-21T05:31:18;101830.84;;;-12.77;40.49
78932;BME280;68331;53.362;55.932;2024-02-21T05:33:44;101826.03;;;-13.01;41.42
78932;BME280;68331;53.362;55.932;2024-02-21T05:36:11;101828.94;;;-11.86;39.86
78932;BME280;68331;53.362;55.932;2024-02-21T05:38:38;101839.38;;;-12.21;38.78
78932;BME280;68331;53.362;55.932;2024-02-21T05:41:05;101830.16;;;-12.57;39.60
78932;BME280;68331;53.362;55.932;2024-02-21T05:43:31;101832.38;;;-12.79;39.64
78932;BME280;68331;53.362;55.932;2024-02-21T05:45:58;101847.75;;;-13.22;40.65
78932;BME280;68331;53.362;55.932;2024-02-21T05:48:24;101838.72;;;-12.00;40.25
78932;BME280;68331;53.362;55.932;2024-02-21T05:50:50;101821.72;;;-10.33;36.82
78932;BME280;68331;53.362;55.932;2024-02-21T05:53:16;101824.13;;;-8.75;34.68
78932;BME280;68331;53.362;55.932;2024-02-21T05:55:42;101788.47;;;-6.22;31.43
78932;BME280;68331;53.362;55.932;2024-02-21T05:58:08;101797.53;;;-4.24;28.45
78932;BME280;68331;53.362;55.932;2024-02-21T06:00:39;101807.53;;;-3.24;27.39
78932;BME280;68331;53.362;55.932;2024-02-21T06:03:05;101793.19;;;-1.53;25.72
78932;BME280;68331;53.362;55.932;2024-02-21T06:05:37;101771.78;;;-1.31;24.32
78932;BME280;68331;53.362;55.932;2024-02-21T06:08:04;101783.91;;;-1.30;23.89
78932;BME280;68331;53.362;55.932;2024-02-21T06:10:30;101787.28;;;-1.13;24.20
78932;BME280;68331;53.362;55.932;2024-02-21T06:12:56;101793.00;;;-0.25;23.06
78932;BME280;68331;53.362;55.932;2024-02-21T06:15:22;101792.44;;;0.66;22.46
78932;BME280;68331;53.362;55.932;2024-02-21T06:17:48;101765.75;;;0.06;22.32
78932;BME280;68331;53.362;55.932;2024-02-21T06:20:16;101784.06;;;-0.31;22.41
78932;BME280;68331;53.362;55.932;2024-02-21T06:22:42;101780.44;;;0.27;21.95
78932;BME280;68331;53.362;55.932;2024-02-21T06:25:08;101769.09;;;1.35;21.11
78932;BME280;68331;53.362;55.932;2024-02-21T06:27:34;101773.66;;;2.43;20.30
78932;BME280;68331;53.362;55.932;2024-02-21T06:30:00;101757.19;;;3.30;19.22
78932;BME280;68331;53.362;55.932;2024-02-21T06:32:26;101770.88;;;4.56;18.44
78932;BME280;68331;53.362;55.932;2024-02-21T06:34:52;101758.66;;;4.53;17.62
78932;BME280;68331;53.362;55.932;2024-02-21T06:37:18;101755.41;;;4.63;18.05
78932;BME280;68331;53.362;55.932;2024-02-21T06:39:44;101762.16;;;4.92;17.98
78932;BME280;68331;53.362;55.932;2024-02-21T06:42:10;101754.38;;;4.95;17.85
78932;BME280;68331;53.362;55.932;2024-02-21T06:44:36;101742.97;;;5.33;17.33
78932;BME280;68331;53.362;55.932;2024-02-21T06:47:06;101744.88;;;5.88;17.10
78932;BME280;68331;53.362;55.932;2024-02-21T06:49:34;101742.13;;;6.32;17.37
78932;BME280;68331;53.362;55.932;2024-02-21T06:52:00;101734.22;;;6.88;16.54
78932;BME280;68331;53.362;55.932;2024-02-21T06:54:26;101747.66;;;7.11;16.21
78932;BME280;68331;53.362;55.932;2024-02-21T06:56:52;101745.09;;;7.15;16.05
78932;BME280;68331;53.362;55.932;2024-02-21T06:59:18;101726.78;;;7.18;15.74
78932;BME280;68331;53.362;55.932;2024-02-21T07:01:48;101736.44;;;7.22;16.39
78932;BME280;68331;53.362;55.932;2024-02-21T07:04:14;101744.50;;;7.39;15.82
78932;BME280;68331;53.362;55.932;2024-02-21T07:06:41;101747.00;;;7.30;15.63
78932;BME280;68331;53.362;55.932;2024-02-21T07:09:07;101738.47;;;7.48;15.64
78932;BME280;68331;53.362;55.932;2024-02-21T07:11:33;101735.91;;;7.51;15.45
78932;BME280;68331;53.362;55.932;2024-02-21T07:13:59;101729.22;;;7.06;15.59
78932;BME280;68331;53.362;55.932;2024-02-21T07:16:25;101735.53;;;7.20;15.57
78932;BME280;68331;53.362;55.932;2024-02-21T07:18:52;101731.38;;;6.72;16.25
78932;BME280;68331;53.362;55.932;2024-02-21T07:21:18;101721.31;;;7.03;16.28
78932;BME280;68331;53.362;55.932;2024-02-21T07:23:44;101722.59;;;7.36;16.14
78932;BME280;68331;53.362;55.932;2024-02-21T07:26:10;101711.06;;;7.21;15.89
78932;BME280;68331;53.362;55.932;2024-02-21T07:28:36;101693.69;;;6.66;16.41
78932;BME280;68331;53.362;55.932;2024-02-21T07:31:03;101723.78;;;6.89;16.26
78932;BME280;68331;53.362;55.932;2024-02-21T07:33:29;101712.34;;;6.26;16.19
78932;BME280;68331;53.362;55.932;2024-02-21T07:35:56;101715.22;;;5.43;17.08
78932;BME280;68331;53.362;55.932;2024-02-21T07:38:22;101727.81;;;5.19;16.96
78932;BME280;68331;53.362;55.932;2024-02-21T07:40:48;101731.91;;;4.65;17.93
78932;BME280;68331;53.362;55.932;2024-02-21T07:43:14;101726.16;;;4.07;18.00
78932;BME280;68331;53.362;55.932;2024-02-21T07:45:40;101716.13;;;1.83;19.23
78932;BME280;68331;53.362;55.932;2024-02-21T07:48:06;101742.88;;;-0.44;21.04
78932;BME280;68331;53.362;55.932;2024-02-21T07:50:33;101751.75;;;-2.90;23.10
78932;BME280;68331;53.362;55.932;2024-02-21T07:52:59;101754.81;;;-4.63;25.09
78932;BME280;68331;53.362;55.932;2024-02-21T07:55:26;101753.41;;;-5.82;25.84
78932;BME280;68331;53.362;55.932;2024-02-21T07:57:52;101780.06;;;-6.58;26.34
78932;BME280;68331;53.362;55.932;2024-02-21T08:00:19;101777.75;;;-7.29;27.42
78932;BME280;68331;53.362;55.932;2024-02-21T08:02:46;101775.44;;;-7.61;27.75
78932;BME280;68331;53.362;55.932;2024-02-21T08:05:12;101766.56;;;-7.78;28.34
78932;BME280;68331;53.362;55.932;2024-02-21T08:07:38;101766.09;;;-7.96;28.32
78932;BME280;68331;53.362;55.932;2024-02-21T08:10:05;101757.88;;;-8.03;29.37
78932;BME280;68331;53.362;55.932;2024-02-21T08:12:35;101767.09;;;-7.82;29.75
78932;BME280;68331;53.362;55.932;2024-02-21T08:15:02;101758.09;;;-7.77;29.41
78932;BME280;68331;53.362;55.932;2024-02-21T08:17:34;101752.41;;;-7.96;29.01
78932;BME280;68331;53.362;55.932;2024-02-21T08:19:59;101755.97;;;-8.06;30.51
78932;BME280;68331;53.362;55.932;2024-02-21T08:22:25;101760.44;;;-8.03;30.40
78932;BME280;68331;53.362;55.932;2024-02-21T08:24:51;101736.59;;;-8.02;30.77
78932;BME280;68331;53.362;55.932;2024-02-21T08:27:17;101760.19;;;-7.83;31.22
78932;BME280;68331;53.362;55.932;2024-02-21T08:29:43;101762.75;;;-7.95;31.12
78932;BME280;68331;53.362;55.932;2024-02-21T08:32:09;101768.53;;;-8.09;31.57
78932;BME280;68331;53.362;55.932;2024-02-21T08:34:35;101776.66;;;-8.26;31.65
78932;BME280;68331;53.362;55.932;2024-02-21T08:37:01;101758.59;;;-8.39;31.93
78932;BME280;68331;53.362;55.932;2024-02-21T08:39:27;101751.22;;;-8.58;32.58
78932;BME280;68331;53.362;55.932;2024-02-21T08:41:54;101772.09;;;-8.76;32.38
78932;BME280;68331;53.362;55.932;2024-02-21T08:44:22;101765.03;;;-8.90;32.72
78932;BME280;68331;53.362;55.932;2024-02-21T08:46:49;101755.19;;;-8.74;32.65
78932;BME280;68331;53.362;55.932;2024-02-21T08:49:15;101757.03;;;-8.61;32.80
78932;BME280;68331;53.362;55.932;2024-02-21T08:51:41;101748.47;;;-8.50;32.89
78932;BME280;68331;53.362;55.932;2024-02-21T08:54:08;101756.38;;;-8.47;32.55
78932;BME280;68331;53.362;55.932;2024-02-21T08:56:34;101753.25;;;-8.54;32.84
78932;BME280;68331;53.362;55.932;2024-02-21T08:59:01;101760.06;;;-8.43;32.83
78932;BME280;68331;53.362;55.932;2024-02-21T09:01:27;101756.50;;;-8.45;32.82
78932;BME280;68331;53.362;55.932;2024-02-21T09:03:54;101764.97;;;-8.68;33.23
78932;BME280;68331;53.362;55.932;2024-02-21T09:06:22;101755.00;;;-8.87;33.82
78932;BME280;68331;53.362;55.932;2024-02-21T09:08:48;101759.94;;;-9.12;34.68
78932;BME280;68331;53.362;55.932;2024-02-21T09:11:14;101748.47;;;-9.49;34.64
78932;BME280;68331;53.362;55.932;2024-02-21T09:13:41;101752.91;;;-9.69;34.94
78932;BME280;68331;53.362;55.932;2024-02-21T09:16:07;101753.44;;;-9.83;35.58
78932;BME280;68331;53.362;55.932;2024-02-21T09:18:34;101737.69;;;-10.10;35.49
78932;BME280;68331;53.362;55.932;2024-02-21T09:21:00;101743.53;;;-10.53;35.59
78932;BME280;68331;53.362;55.932;2024-02-21T09:23:26;101766.22;;;-10.66;36.35
78932;BME280;68331;53.362;55.932;2024-02-21T09:25:53;101772.09;;;-10.67;36.40
78932;BME280;68331;53.362;55.932;2024-02-21T09:28:20;101770.19;;;-10.60;37.01
78932;BME280;68331;53.362;55.932;2024-02-21T09:30:46;101770.56;;;-10.75;36.84
78932;BME280;68331;53.362;55.932;2024-02-21T09:33:12;101760.19;;;-10.97;36.87
78932;BME280;68331;53.362;55.932;2024-02-21T09:35:38;101767.19;;;-11.05;37.21
78932;BME280;68331;53.362;55.932;2024-02-21T09:38:04;101748.66;;;-11.33;38.71
78932;BME280;68331;53.362;55.932;2024-02-21T09:40:30;101766.06;;;-11.09;38.77
78932;BME280;68331;53.362;55.932;2024-02-21T09:43:04;101777.56;;;-10.83;38.90
78932;BME280;68331;53.362;55.932;2024-02-21T09:45:33;101764.97;;;-10.71;38.45
78932;BME280;68331;53.362;55.932;2024-02-21T09:50:40;101771.84;;;-10.60;38.85
78932;BME280;68331;53.362;55.932;2024-02-21T09:53:12;101770.56;;;-10.45;38.94
78932;BME280;68331;53.362;55.932;2024-02-21T09:55:39;101773.91;;;-10.46;38.48
78932;BME280;68331;53.362;55.932;2024-02-21T09:58:10;101768.16;;;-10.84;38.90
78932;BME280;68331;53.362;55.932;2024-02-21T10:00:37;101760.19;;;-11.08;39.79
78932;BME280;68331;53.362;55.932;2024-02-21T10:03:03;101774.22;;;-11.13;39.81
78932;BME280;68331;53.362;55.932;2024-02-21T10:05:36;101777.16;;;-10.98;39.65
78932;BME280;68331;53.362;55.932;2024-02-21T10:08:04;101762.91;;;-10.75;39.32
78932;BME280;68331;53.362;55.932;2024-02-21T10:10:41;101757.06;;;-10.64;39.10
78932;BME280;68331;53.362;55.932;2024-02-21T10:13:09;101746.84;;;-10.54;38.69
78932;BME280;68331;53.362;55.932;2024-02-21T10:15:36;101751.31;;;-10.51;38.54
78932;BME280;68331;53.362;55.932;2024-02-21T10:18:02;101751.06;;;-10.55;38.70
78932;BME280;68331;53.362;55.932;2024-02-21T10:20:32;101762.16;;;-10.44;38.65
78932;BME280;68331;53.362;55.932;2024-02-21T10:23:04;101764.81;;;-10.32;38.41
78932;BME280;68331;53.362;55.932;2024-02-21T10:25:37;101755.69;;;-10.18;38.25
78932;BME280;68331;53.362;55.932;2024-02-21T10:28:07;101745.59;;;-10.07;37.83
78932;BME280;68331;53.362;55.932;2024-02-21T10:30:33;101748.38;;;-9.93;37.65
78932;BME280;68331;53.362;55.932;2024-02-21T10:32:59;101738.91;;;-9.84;37.87
78932;BME280;68331;53.362;55.932;2024-02-21T10:35:31;101757.00;;;-9.71;37.60
78932;BME280;68331;53.362;55.932;2024-02-21T10:37:58;101760.69;;;-9.67;37.50
78932;BME280;68331;53.362;55.932;2024-02-21T10:40:26;101749.81;;;-9.65;37.16
78932;BME280;68331;53.362;55.932;2024-02-21T10:42:56;101755.25;;;-9.50;37.12
78932;BME280;68331;53.362;55.932;2024-02-21T10:45:33;101755.59;;;-9.45;36.54
78932;BME280;68331;53.362;55.932;2024-02-21T10:48:22;101757.13;;;-9.37;37.24
78932;BME280;68331;53.362;55.932;2024-02-21T10:51:09;101759.28;;;-9.31;36.27
78932;BME280;68331;53.362;55.932;2024-02-21T10:56:31;101763.22;;;-9.35;36.54
78932;BME280;68331;53.362;55.932;2024-02-21T10:59:02;101756.25;;;-9.48;36.43
78932;BME280;68331;53.362;55.932;2024-02-21T11:01:29;101763.69;;;-9.51;36.92
78932;BME280;68331;53.362;55.932;2024-02-21T11:04:03;101737.63;;;-9.79;37.28
78932;BME280;68331;53.362;55.932;2024-02-21T11:06:29;101762.50;;;-9.76;37.59
78932;BME280;68331;53.362;55.932;2024-02-21T11:09:06;101771.22;;;-9.85;37.11
78932;BME280;68331;53.362;55.932;2024-02-21T11:11:43;101766.00;;;-9.96;37.49
78932;BME280;68331;53.362;55.932;2024-02-21T11:14:11;101766.50;;;-9.90;37.22
78932;BME280;68331;53.362;55.932;2024-02-21T11:16:39;101748.53;;;-10.02;36.77
78932;BME280;68331;53.362;55.932;2024-02-21T11:21:51;101768.09;;;-10.13;37.12
78932;BME280;68331;53.362;55.932;2024-02-21T11:24:33;101761.31;;;-10.12;37.30
78932;BME280;68331;53.362;55.932;2024-02-21T11:27:12;101750.22;;;-10.13;37.46
78932;BME280;68331;53.362;55.932;2024-02-21T11:29:49;101757.59;;;-10.06;37.57
78932;BME280;68331;53.362;55.932;2024-02-21T11:32:19;101748.19;;;-10.17;37.70
78932;BME280;68331;53.362;55.932;2024-02-21T11:35:03;101753.03;;;-10.20;37.74
78932;BME280;68331;53.362;55.932;2024-02-21T11:37:35;101758.16;;;-10.20;37.63
78932;BME280;68331;53.362;55.932;2024-02-21T11:40:05;101765.72;;;-10.32;38.25
78932;BME280;68331;53.362;55.932;2024-02-21T11:42:36;101752.34;;;-10.39;37.97
78932;BME280;68331;53.362;55.932;2024-02-21T11:45:02;101766.44;;;-10.22;38.21
78932;BME280;68331;53.362;55.932;2024-02-21T11:47:32;101761.97;;;-10.25;38.45
78932;BME280;68331;53.362;55.932;2024-02-21T11:49:58;101763.41;;;-10.28;38.61
78932;BME280;68331;53.362;55.932;2024-02-21T11:52:25;101758.34;;;-10.49;39.03
78932;BME280;68331;53.362;55.932;2024-02-21T11:54:52;101763.94;;;-10.53;39.17
78932;BME280;68331;53.362;55.932;2024-02-21T11:57:18;101764.81;;;-10.73;39.78
78932;BME280;68331;53.362;55.932;2024-02-21T11:59:45;101763.94;;;-10.94;39.70
78932;BME280;68331;53.362;55.932;2024-02-21T12:02:12;101762.97;;;-11.15;40.47
78932;BME280;68331;53.362;55.932;2024-02-21T12:04:38;101740.41;;;-11.31;40.42
78932;BME280;68331;53.362;55.932;2024-02-21T12:07:05;101769.06;;;-11.23;40.75
78932;BME280;68331;53.362;55.932;2024-02-21T12:09:31;101769.03;;;-11.33;40.78
78932;BME280;68331;53.362;55.932;2024-02-21T12:12:00;101771.31;;;-11.36;40.88
78932;BME280;68331;53.362;55.932;2024-02-21T12:14:27;101775.88;;;-11.42;41.27
78932;BME280;68331;53.362;55.932;2024-02-21T12:16:54;101771.91;;;-11.49;41.45
78932;BME280;68331;53.362;55.932;2024-02-21T12:19:21;101742.94;;;-11.70;41.44
78932;BME280;68331;53.362;55.932;2024-02-21T12:21:48;101739.81;;;-11.57;41.58
78932;BME280;68331;53.362;55.932;2024-02-21T12:24:20;101785.94;;;-11.44;41.67
78932;BME280;68331;53.362;55.932;2024-02-21T12:26:47;101773.84;;;-11.47;41.71
78932;BME280;68331;53.362;55.932;2024-02-21T12:29:13;101778.31;;;-11.44;41.39
78932;BME280;68331;53.362;55.932;2024-02-21T12:31:39;101787.88;;;-11.41;41.45
78932;BME280;68331;53.362;55.932;2024-02-21T12:34:05;101769.34;;;-11.49;41.49
78932;BME280;68331;53.362;55.932;2024-02-21T12:36:32;101756.41;;;-11.71;41.69
78932;BME280;68331;53.362;55.932;2024-02-21T12:38:59;101772.34;;;-11.74;41.93
78932;BME280;68331;53.362;55.932;2024-02-21T12:41:25;101772.34;;;-11.74;41.83
78932;BME280;68331;53.362;55.932;2024-02-21T12:43:53;101781.88;;;-11.71;41.79
78932;BME280;68331;53.362;55.932;2024-02-21T12:46:19;101774.44;;;-11.88;41.82
78932;BME280;68331;53.362;55.932;2024-02-21T12:48:45;101762.28;;;-12.01;42.12
78932;BME280;68331;53.362;55.932;2024-02-21T12:51:11;101778.94;;;-12.05;42.44
78932;BME280;68331;53.362;55.932;2024-02-21T12:53:37;101773.56;;;-12.08;42.43
78932;BME280;68331;53.362;55.932;2024-02-21T12:56:03;101762.56;;;-12.17;42.81
78932;BME280;68331;53.362;55.932;2024-02-21T12:58:30;101779.59;;;-12.16;43.10
78932;BME280;68331;53.362;55.932;2024-02-21T13:00:57;101781.19;;;-12.27;43.49